Brandon, FL

12:18 PM EST en Noviembre 26, 2014 (GMT -0500)
Plant City Municipal | Change Station
CLOSE
Current Station
Aeropuerto
Location: Plant City,
Altura: 154 ft
Estaciones meteorológicas cercanas

Alt 154 ft 28.00 °N, 82.16 °W | Updated 3 minutes ago

Nublado
Nublado
57 ° F
Sensación térmica 57 ° F
N
8
Viento Variable Viento desde Norte

Hoy
Alta -- | Baja -- ° F
--% Posibilidad de precipitaciones
Ayer
Alta -- | Baja -- ° F
Precip. -- pul
6:59 AM 5:33 PM
Creciente, 21% visible
Presión 30.18 pul
Visibilidad 10.0 Millas
Nubes Muy nublado 12000 ft
Punto de rocío 52 ° F
Humedad 82%
Precipitaciones 0.22 pul
Espesor de la nieve No disponible.
UV 4 de una escala de 12
Polen .50 de una escala de 12
Calidad del aire No disponible.
Flu Activity No disponible.
METAR KPCM 261715Z AUTO 35007KT 10SM BKN120 14/11 A3018 RMK AO2

More Conditions Fewer Conditions

Presión 30.18 pul
Visibilidad 10.0 Millas
Nubes Muy nublado 12000 ft
Punto de rocío 52 ° F
Humedad 82%
Precipitaciones 0.22 pul
Espesor de la nieve No disponible.
UV 4 de una escala de 12
Polen .50 de una escala de 12
Calidad del aire No disponible.
Flu Activity No disponible.
METAR KPCM 261715Z AUTO 35007KT 10SM BKN120 14/11 A3018 RMK AO2

More Conditions Fewer Conditions

10-Day Weather Forecast

Almanac

Astronomía

Nov. 26, 2014 Salida Puesta
Hora real
Crepúsculo civil
Crepúsculo náutico
Crepúsculo astronómico
Luna
Horas de luz
Horas de luz
Tomorrow will be .
, % of the Moon is Illuminated

Extremos de hoy

Máximos del estado Bajos del estado

Community

WunderPhotos

Upload Photos

1,773,800 ¡fotos cargadas!

WunderBlogs® & News

Nearby

Calidad del aire

  Calidad del aire Índice AQ Contaminante
Not available.

Grosos de nieve

Estación Profundido Altura

Actividad de terremotos

Ciudad Distance Mag. Tiempo y dato
Magnitud mínima muestra es 2,5.

Temperaturas de aguas costeras

Lugar Temperatura

Estaciones meteorológicas cercanas